SEYTG ESSV-ESSA
Flight info
| Callsign | SEYTG |
|---|---|
| Flight time | 0h 27m |
| Altitude | 21000 |
| Route | ROGMI Z229 NILUG |
| Aircraft | C750/M-SBDE3FGHRWXY/S |
Departure
| Time | 2026-04-22 17:36 |
|---|---|
| Airport | Visby Airport (ESSV) |
Arrival
| Time | 2026-04-22 18:04 |
|---|---|
| Airport | Stockholm-Arlanda Airport (ESSA) |
| Time | Latitude | Longitude | Altitude | Speed | Heading |
|---|---|---|---|---|---|
| 2026-04-22 17:11 | 57.66086 | 18.34074 | 141 ft | 0 kts | 258° |
| 2026-04-22 17:32 | 57.66087 | 18.34066 | 142 ft | 1 kts | 284° |
| 2026-04-22 17:32 | 57.66113 | 18.34057 | 141 ft | 7 kts | 12° |
| 2026-04-22 17:32 | 57.66122 | 18.34152 | 141 ft | 8 kts | 96° |
| 2026-04-22 17:32 | 57.66175 | 18.34222 | 141 ft | 12 kts | 20° |
| 2026-04-22 17:33 | 57.66222 | 18.34255 | 142 ft | 10 kts | 20° |
| 2026-04-22 17:33 | 57.66303 | 18.34313 | 142 ft | 9 kts | 22° |
| 2026-04-22 17:33 | 57.66364 | 18.34359 | 142 ft | 11 kts | 21° |
| 2026-04-22 17:33 | 57.66450 | 18.34419 | 143 ft | 17 kts | 21° |
| 2026-04-22 17:34 | 57.66603 | 18.34529 | 142 ft | 30 kts | 20° |
| 2026-04-22 17:34 | 57.66826 | 18.34688 | 142 ft | 34 kts | 21° |
| 2026-04-22 17:34 | 57.66994 | 18.34810 | 145 ft | 23 kts | 22° |
| 2026-04-22 17:34 | 57.67133 | 18.34913 | 146 ft | 15 kts | 29° |
| 2026-04-22 17:35 | 57.67181 | 18.34958 | 147 ft | 6 kts | 36° |
| 2026-04-22 17:35 | 57.67210 | 18.35087 | 147 ft | 15 kts | 93° |
| 2026-04-22 17:35 | 57.67156 | 18.35204 | 146 ft | 11 kts | 160° |
| 2026-04-22 17:35 | 57.67099 | 18.35210 | 147 ft | 5 kts | 207° |
| 2026-04-22 17:36 | 57.67087 | 18.35201 | 148 ft | 6 kts | 199° |
| 2026-04-22 17:36 | 57.66721 | 18.34942 | 140 ft | 113 kts | 201° |
| 2026-04-22 17:36 | 57.65849 | 18.34322 | 484 ft | 145 kts | 203° |
| 2026-04-22 17:36 | 57.64765 | 18.33898 | 810 ft | 181 kts | 184° |
| 2026-04-22 17:37 | 57.63424 | 18.33880 | 1238 ft | 205 kts | 192° |
| 2026-04-22 17:37 | 57.61956 | 18.33343 | 1705 ft | 225 kts | 199° |
| 2026-04-22 17:37 | 57.60482 | 18.32368 | 2374 ft | 225 kts | 218° |
| 2026-04-22 17:37 | 57.59486 | 18.30261 | 3132 ft | 213 kts | 249° |
| 2026-04-22 17:38 | 57.59145 | 18.27650 | 3876 ft | 206 kts | 276° |
| 2026-04-22 17:38 | 57.59479 | 18.25108 | 4663 ft | 201 kts | 300° |
| 2026-04-22 17:38 | 57.60167 | 18.22829 | 5457 ft | 203 kts | 304° |
| 2026-04-22 17:38 | 57.60861 | 18.20514 | 6291 ft | 207 kts | 304° |
| 2026-04-22 17:39 | 57.61560 | 18.18173 | 7396 ft | 205 kts | 304° |
| 2026-04-22 17:39 | 57.62263 | 18.15838 | 8473 ft | 209 kts | 305° |
| 2026-04-22 17:39 | 57.63998 | 18.11500 | 10395 ft | 213 kts | 328° |
| 2026-04-22 17:40 | 57.65403 | 18.10353 | 10968 ft | 231 kts | 348° |
| 2026-04-22 17:40 | 57.67097 | 18.10020 | 11288 ft | 258 kts | 354° |
| 2026-04-22 17:40 | 57.68975 | 18.09700 | 11596 ft | 284 kts | 353° |
| 2026-04-22 17:40 | 57.71003 | 18.09311 | 11802 ft | 310 kts | 353° |
| 2026-04-22 17:41 | 57.73244 | 18.08883 | 12246 ft | 324 kts | 353° |
| 2026-04-22 17:41 | 57.75462 | 18.08475 | 13069 ft | 326 kts | 354° |
| 2026-04-22 17:41 | 57.77738 | 18.08053 | 13824 ft | 331 kts | 354° |
| 2026-04-22 17:41 | 57.80042 | 18.07620 | 14520 ft | 334 kts | 354° |
| 2026-04-22 17:42 | 57.82367 | 18.07183 | 15219 ft | 337 kts | 354° |
| 2026-04-22 17:42 | 57.84708 | 18.06744 | 15919 ft | 340 kts | 354° |
| 2026-04-22 17:42 | 57.86307 | 18.06444 | 16404 ft | 342 kts | 354° |
| 2026-04-22 17:42 | 57.89454 | 18.05852 | 17385 ft | 346 kts | 354° |
| 2026-04-22 17:43 | 57.91876 | 18.05396 | 18149 ft | 350 kts | 355° |
| 2026-04-22 17:43 | 57.94309 | 18.04937 | 18841 ft | 353 kts | 355° |
| 2026-04-22 17:43 | 57.96768 | 18.04472 | 19512 ft | 357 kts | 355° |
| 2026-04-22 17:43 | 57.99256 | 18.04001 | 20198 ft | 361 kts | 355° |
| 2026-04-22 17:44 | 58.01756 | 18.03527 | 20880 ft | 361 kts | 355° |
| 2026-04-22 17:44 | 58.04313 | 18.03043 | 21052 ft | 380 kts | 355° |
| 2026-04-22 17:44 | 58.07014 | 18.02533 | 21055 ft | 400 kts | 355° |
| 2026-04-22 17:44 | 58.09818 | 18.01998 | 21049 ft | 408 kts | 355° |
| 2026-04-22 17:45 | 58.12655 | 18.01454 | 21048 ft | 411 kts | 355° |
| 2026-04-22 17:45 | 58.15513 | 18.00908 | 21047 ft | 413 kts | 355° |
| 2026-04-22 17:45 | 58.18382 | 18.00361 | 21051 ft | 414 kts | 355° |
| 2026-04-22 17:45 | 58.21253 | 17.99813 | 21052 ft | 415 kts | 355° |
| 2026-04-22 17:46 | 58.24128 | 17.99284 | 21045 ft | 415 kts | 355° |
| 2026-04-22 17:46 | 58.26971 | 17.98768 | 21045 ft | 415 kts | 355° |
| 2026-04-22 17:46 | 58.29845 | 17.98234 | 21044 ft | 415 kts | 355° |
| 2026-04-22 17:46 | 58.32720 | 17.97694 | 21045 ft | 415 kts | 355° |
| 2026-04-22 17:47 | 58.35598 | 17.97158 | 21037 ft | 415 kts | 355° |
| 2026-04-22 17:47 | 58.38472 | 17.96624 | 21037 ft | 415 kts | 355° |
| 2026-04-22 17:47 | 58.41351 | 17.96086 | 21037 ft | 415 kts | 355° |
| 2026-04-22 17:47 | 58.44227 | 17.95547 | 21038 ft | 415 kts | 355° |
| 2026-04-22 17:48 | 58.46171 | 17.95182 | 21036 ft | 415 kts | 355° |
| 2026-04-22 17:48 | 58.49976 | 17.94468 | 20979 ft | 407 kts | 355° |
| 2026-04-22 17:48 | 58.52678 | 17.93955 | 20503 ft | 374 kts | 355° |
| 2026-04-22 17:48 | 58.55206 | 17.93479 | 20025 ft | 360 kts | 355° |
| 2026-04-22 17:49 | 58.57706 | 17.93013 | 19544 ft | 360 kts | 355° |
| 2026-04-22 17:49 | 58.60197 | 17.92543 | 19081 ft | 359 kts | 355° |
| 2026-04-22 17:49 | 58.62676 | 17.92072 | 18599 ft | 357 kts | 355° |
| 2026-04-22 17:49 | 58.65134 | 17.91605 | 18111 ft | 352 kts | 355° |
| 2026-04-22 17:50 | 58.67558 | 17.91145 | 17638 ft | 349 kts | 355° |
| 2026-04-22 17:50 | 58.69971 | 17.90677 | 17169 ft | 347 kts | 355° |
| 2026-04-22 17:50 | 58.72354 | 17.90198 | 16716 ft | 344 kts | 355° |
| 2026-04-22 17:50 | 58.74737 | 17.89716 | 16267 ft | 345 kts | 355° |
| 2026-04-22 17:51 | 58.77108 | 17.89238 | 15819 ft | 341 kts | 355° |
| 2026-04-22 17:51 | 58.79459 | 17.88763 | 15369 ft | 338 kts | 355° |
| 2026-04-22 17:51 | 58.81782 | 17.88292 | 14910 ft | 334 kts | 355° |
| 2026-04-22 17:51 | 58.84088 | 17.87825 | 14531 ft | 331 kts | 355° |
| 2026-04-22 17:52 | 58.86368 | 17.87364 | 14160 ft | 329 kts | 355° |
| 2026-04-22 17:52 | 58.88632 | 17.86910 | 13788 ft | 326 kts | 355° |
| 2026-04-22 17:52 | 58.90880 | 17.86461 | 13366 ft | 324 kts | 355° |
| 2026-04-22 17:52 | 58.93116 | 17.86029 | 12951 ft | 322 kts | 355° |
| 2026-04-22 17:53 | 58.95338 | 17.85629 | 12564 ft | 320 kts | 355° |
| 2026-04-22 17:53 | 58.97552 | 17.85274 | 12168 ft | 318 kts | 355° |
| 2026-04-22 17:53 | 58.99715 | 17.84950 | 11794 ft | 316 kts | 355° |
| 2026-04-22 17:53 | 59.01900 | 17.84644 | 11413 ft | 314 kts | 355° |
| 2026-04-22 17:54 | 59.04070 | 17.84362 | 11040 ft | 310 kts | 355° |
| 2026-04-22 17:54 | 59.06135 | 17.84115 | 10667 ft | 285 kts | 355° |
| 2026-04-22 17:54 | 59.08043 | 17.83915 | 10281 ft | 265 kts | 355° |
| 2026-04-22 17:54 | 59.09835 | 17.83751 | 9885 ft | 253 kts | 355° |
| 2026-04-22 17:55 | 59.11002 | 17.83656 | 9439 ft | 253 kts | 355° |
| 2026-04-22 17:55 | 59.13504 | 17.83439 | 8569 ft | 276 kts | 355° |
| 2026-04-22 17:55 | 59.15415 | 17.83252 | 8009 ft | 274 kts | 355° |
| 2026-04-22 17:55 | 59.17281 | 17.83056 | 7610 ft | 264 kts | 355° |
| 2026-04-22 17:56 | 59.18490 | 17.82924 | 7347 ft | 262 kts | 355° |
| 2026-04-22 17:56 | 59.20302 | 17.82714 | 6950 ft | 260 kts | 355° |
| 2026-04-22 17:56 | 59.22102 | 17.82493 | 6555 ft | 258 kts | 355° |
| 2026-04-22 17:56 | 59.23888 | 17.82264 | 6158 ft | 257 kts | 354° |
| 2026-04-22 17:57 | 59.25680 | 17.82048 | 5737 ft | 259 kts | 355° |
| 2026-04-22 17:57 | 59.27468 | 17.81852 | 5444 ft | 255 kts | 355° |
| 2026-04-22 17:57 | 59.29247 | 17.81684 | 5218 ft | 256 kts | 357° |
| 2026-04-22 17:57 | 59.31025 | 17.81734 | 5026 ft | 252 kts | 360° |
| 2026-04-22 17:58 | 59.32693 | 17.81422 | 4824 ft | 235 kts | 351° |
| 2026-04-22 17:58 | 59.34321 | 17.81155 | 4633 ft | 235 kts | 357° |
| 2026-04-22 17:58 | 59.35951 | 17.81371 | 4433 ft | 235 kts | 6° |
| 2026-04-22 17:58 | 59.37563 | 17.81937 | 4251 ft | 235 kts | 8° |
| 2026-04-22 17:59 | 59.39168 | 17.82514 | 4072 ft | 234 kts | 8° |
| 2026-04-22 17:59 | 59.40771 | 17.83089 | 3889 ft | 234 kts | 8° |
| 2026-04-22 17:59 | 59.42372 | 17.83662 | 3712 ft | 233 kts | 8° |
| 2026-04-22 17:59 | 59.43973 | 17.84236 | 3537 ft | 234 kts | 8° |
| 2026-04-22 18:00 | 59.45573 | 17.84810 | 3355 ft | 232 kts | 8° |
| 2026-04-22 18:00 | 59.47151 | 17.85378 | 3176 ft | 231 kts | 8° |
| 2026-04-22 18:00 | 59.48730 | 17.85946 | 2990 ft | 231 kts | 8° |
| 2026-04-22 18:00 | 59.50288 | 17.86507 | 2813 ft | 230 kts | 8° |
| 2026-04-22 18:01 | 59.51875 | 17.87078 | 2635 ft | 232 kts | 8° |
| 2026-04-22 18:01 | 59.53444 | 17.87644 | 2517 ft | 220 kts | 8° |
| 2026-04-22 18:01 | 59.54807 | 17.88126 | 2502 ft | 183 kts | 7° |
| 2026-04-22 18:01 | 59.55979 | 17.88547 | 2498 ft | 173 kts | 7° |
| 2026-04-22 18:02 | 59.57175 | 17.88984 | 1605 ft | 171 kts | 8° |
| 2026-04-22 18:02 | 59.58369 | 17.89435 | 1325 ft | 176 kts | 8° |
| 2026-04-22 18:02 | 59.59575 | 17.89894 | 1087 ft | 177 kts | 8° |
| 2026-04-22 18:02 | 59.60741 | 17.90292 | 875 ft | 152 kts | 7° |
| 2026-04-22 18:03 | 59.61802 | 17.90656 | 656 ft | 160 kts | 8° |
| 2026-04-22 18:03 | 59.62853 | 17.91020 | 338 ft | 142 kts | 7° |
| 2026-04-22 18:03 | 59.63713 | 17.91321 | 140 ft | 113 kts | 7° |
| 2026-04-22 18:03 | 59.64422 | 17.91572 | 105 ft | 93 kts | 9° |
| 2026-04-22 18:04 | 59.64727 | 17.91714 | 105 ft | 22 kts | 31° |
| 2026-04-22 18:04 | 59.64836 | 17.91908 | 101 ft | 22 kts | 44° |
| 2026-04-22 18:04 | 59.64852 | 17.92087 | 103 ft | 13 kts | 167° |
| 2026-04-22 18:04 | 59.64746 | 17.92053 | 104 ft | 20 kts | 190° |
| 2026-04-22 18:05 | 59.64586 | 17.91994 | 106 ft | 26 kts | 190° |
| 2026-04-22 18:05 | 59.64424 | 17.91941 | 108 ft | 21 kts | 188° |
| 2026-04-22 18:05 | 59.64315 | 17.92036 | 110 ft | 18 kts | 147° |
| 2026-04-22 18:05 | 59.64214 | 17.92095 | 112 ft | 11 kts | 146° |
| 2026-04-22 18:06 | 59.64189 | 17.92117 | 112 ft | 2 kts | 224° |
| 2026-04-22 18:06 | 59.64113 | 17.92041 | 112 ft | 19 kts | 194° |
| 2026-04-22 18:06 | 59.64017 | 17.91994 | 111 ft | 6 kts | 264° |
| 2026-04-22 18:06 | 59.64023 | 17.91941 | 110 ft | 1 kts | 320° |
| 2026-04-22 18:07 | 59.64030 | 17.91933 | 110 ft | 0 kts | 327° |